Time;durP1;ratioP1;P1;durP2;ratioP2;P2;SDS_P1;SDS_P2;PMS_P1;PMS_P2;Temp;Humidity;BMP_temperature;BMP_pressure;BME280_temperature;BME280_humidity;BME280_pressure;Samples;Min_cycle;Max_cycle;Signal;HPM_P1;HPM_P2
2022/06/01 00:01:00;;;;;;;8.18;5.20;;;;;;;12.83;99.71;100492.03;5044911;28;20059;-53
2022/06/01 00:03:32;;;;;;;5.32;4.60;;;;;;;12.81;100.00;100494.78;5026834;28;20056;-50
2022/06/01 00:05:59;;;;;;;5.45;4.50;;;;;;;12.79;99.82;100495.84;5038429;28;20056;-54
2022/06/01 00:08:27;;;;;;;5.95;4.90;;;;;;;12.79;99.93;100493.19;5053654;28;20071;-52
2022/06/01 00:10:54;;;;;;;6.35;4.43;;;;;;;12.80;100.00;100497.56;5044631;28;20516;-54
2022/06/01 00:13:22;;;;;;;5.18;4.53;;;;;;;12.78;100.00;100500.28;5043686;28;20044;-54
2022/06/01 00:15:50;;;;;;;9.38;4.82;;;;;;;12.78;100.00;100495.00;5056719;28;20060;-53
2022/06/01 00:18:17;;;;;;;6.30;4.43;;;;;;;12.76;100.00;100494.28;5029275;28;20064;-47
2022/06/01 00:20:45;;;;;;;6.60;4.68;;;;;;;12.76;100.00;100481.06;5054257;28;20052;-54
2022/06/01 00:23:12;;;;;;;5.25;4.53;;;;;;;12.79;100.00;100480.00;5051741;28;20061;-52
2022/06/01 00:25:41;;;;;;;5.57;4.95;;;;;;;12.80;100.00;100484.34;5054855;28;20171;-59
2022/06/01 00:28:09;;;;;;;8.02;5.40;;;;;;;12.79;100.00;100477.34;5063348;28;20041;-57
2022/06/01 00:30:36;;;;;;;7.47;4.97;;;;;;;12.77;100.00;100474.81;5049983;28;20041;-53
2022/06/01 00:33:03;;;;;;;6.25;4.65;;;;;;;12.77;100.00;100480.09;5048313;28;20049;-50
2022/06/01 00:35:31;;;;;;;5.28;4.55;;;;;;;12.78;100.00;100480.94;5051282;28;20494;-55
2022/06/01 00:37:58;;;;;;;6.22;5.07;;;;;;;12.77;100.00;100481.91;5051757;28;20048;-55
2022/06/01 00:40:26;;;;;;;7.25;5.05;;;;;;;12.76;100.00;100490.78;5045500;28;20053;-50
2022/06/01 00:42:57;;;;;;;7.25;5.38;;;;;;;12.74;100.00;100496.16;5039313;28;20567;-51
2022/06/01 00:45:27;;;;;;;5.47;4.43;;;;;;;12.75;100.00;100502.31;5043062;28;20731;-57
2022/06/01 00:47:54;;;;;;;7.57;5.55;;;;;;;12.75;100.00;100497.88;5054073;28;20622;-51
2022/06/01 00:50:28;;;;;;;7.43;5.43;;;;;;;12.75;100.00;100499.69;5048144;28;20047;-51
2022/06/01 00:53:05;;;;;;;7.88;6.03;;;;;;;12.75;100.00;100494.38;5025159;28;20492;-54
2022/06/01 00:55:35;;;;;;;7.43;5.72;;;;;;;12.76;100.00;100488.16;5022954;28;20049;-49
2022/06/01 00:58:08;;;;;;;6.30;5.68;;;;;;;12.79;100.00;100488.78;5062239;28;20439;-55
2022/06/01 01:00:38;;;;;;;10.05;5.65;;;;;;;12.81;100.00;100483.38;5043618;28;20049;-54
2022/06/01 01:03:07;;;;;;;6.75;5.22;;;;;;;12.81;100.00;100494.78;5032613;28;20112;-53
2022/06/01 01:05:34;;;;;;;7.78;5.07;;;;;;;12.82;100.00;100500.91;5040190;28;20065;-50
2022/06/01 01:08:03;;;;;;;7.47;4.97;;;;;;;12.82;100.00;100493.84;5057402;28;20048;-56
2022/06/01 01:10:30;;;;;;;8.27;5.30;;;;;;;12.84;100.00;100491.94;5053098;28;20056;-47
2022/06/01 01:12:59;;;;;;;5.18;4.47;;;;;;;12.84;100.00;100504.31;5048583;28;20045;-53
2022/06/01 01:15:51;;;;;;;6.88;5.30;;;;;;;12.82;100.00;100503.56;5046212;28;20055;-50
2022/06/01 01:18:35;;;;;;;7.93;5.40;;;;;;;12.81;100.00;100499.22;5027954;28;20060;-48
2022/06/01 01:21:16;;;;;;;7.68;5.22;;;;;;;12.80;100.00;100500.19;5042278;28;20052;-49
2022/06/01 01:23:53;;;;;;;7.15;5.45;;;;;;;12.77;100.00;100503.03;5050301;28;20056;-50
2022/06/01 01:26:21;;;;;;;6.10;4.78;;;;;;;12.74;100.00;100505.88;5045736;28;20053;-52
2022/06/01 01:28:48;;;;;;;7.32;5.00;;;;;;;12.73;100.00;100509.47;5014003;28;20405;-50
2022/06/01 01:31:21;;;;;;;7.13;5.57;;;;;;;12.72;100.00;100513.09;5033296;28;20067;-53
2022/06/01 01:33:50;;;;;;;8.00;4.97;;;;;;;12.72;100.00;100510.44;5043358;28;20509;-50
2022/06/01 01:36:20;;;;;;;7.93;5.40;;;;;;;12.68;100.00;100510.66;5044739;28;20052;-56
2022/06/01 01:38:52;;;;;;;8.80;5.43;;;;;;;12.68;100.00;100504.53;5061544;28;20052;-53
2022/06/01 01:41:30;;;;;;;6.65;5.38;;;;;;;12.67;100.00;100501.03;5027153;28;20517;-50
2022/06/01 01:44:09;;;;;;;6.80;4.88;;;;;;;12.57;100.00;100496.50;5026981;28;20053;-57
2022/06/01 01:46:36;;;;;;;9.13;4.82;;;;;;;12.53;100.00;100498.53;5051355;28;20053;-49
2022/06/01 01:49:04;;;;;;;8.18;4.60;;;;;;;12.54;100.00;100502.84;5050847;28;20049;-49
2022/06/01 01:51:32;;;;;;;5.25;4.55;;;;;;;12.49;100.00;100499.69;5039057;28;20049;-53
2022/06/01 01:54:00;;;;;;;6.10;5.38;;;;;;;12.49;100.00;100501.47;5041151;28;20049;-51
2022/06/01 01:56:39;;;;;;;5.68;5.10;;;;;;;12.49;100.00;100501.47;5053766;28;20064;-52
2022/06/01 01:59:31;;;;;;;5.07;4.57;;;;;;;12.48;100.00;100503.28;5030094;28;20065;-50
2022/06/01 02:02:06;;;;;;;5.72;4.55;;;;;;;12.45;99.60;100505.28;5047622;28;20049;-51
2022/06/01 02:07:23;;;;;;;;;;;;;;;12.46;99.18;100510.44;5048873;28;20408;-48
2022/06/01 02:12:42;;;;;;;5.15;4.35;;;;;;;12.46;99.10;100502.53;5048490;28;20438;-54
2022/06/01 02:15:14;;;;;;;6.50;4.65;;;;;;;12.47;98.76;100501.56;5029060;28;20778;-47
2022/06/01 02:17:49;;;;;;;6.20;4.25;;;;;;;12.46;97.93;100502.53;5049871;28;20060;-48
2022/06/01 02:20:34;;;;;;;4.93;4.43;;;;;;;12.48;98.47;100497.16;5052105;28;20059;-51
2022/06/01 02:23:02;;;;;;;10.10;4.43;;;;;;;12.47;98.60;100498.91;5035175;28;20507;-51
2022/06/01 02:25:29;;;;;;;6.80;4.80;;;;;;;12.47;98.39;100490.16;5031387;28;20080;-48
2022/06/01 02:27:58;;;;;;;5.13;3.95;;;;;;;12.49;98.20;100496.19;5032067;28;20057;-50
2022/06/01 02:30:32;;;;;;;5.65;3.97;;;;;;;12.48;98.06;100491.88;5035546;28;20531;-47
2022/06/01 02:33:01;;;;;;;7.78;4.70;;;;;;;12.48;97.48;100490.06;5029299;28;20052;-47
2022/06/01 02:35:32;;;;;;;6.78;4.80;;;;;;;12.48;97.05;100495.34;5026685;28;20048;-47
2022/06/01 02:38:02;;;;;;;5.78;3.53;;;;;;;12.47;97.37;100491.00;5039198;28;20440;-48
2022/06/01 02:40:29;;;;;;;6.07;4.30;;;;;;;12.48;97.22;100498.00;5029563;28;20053;-51
2022/06/01 02:42:57;;;;;;;6.28;4.57;;;;;;;12.46;96.77;100494.59;5044403;28;20053;-56
2022/06/01 02:45:26;;;;;;;5.22;3.67;;;;;;;12.43;97.96;100502.75;5039634;28;20060;-51
2022/06/01 02:47:55;;;;;;;5.25;4.25;;;;;;;12.41;98.31;100497.56;5058191;28;20066;-48
2022/06/01 02:50:24;;;;;;;7.35;3.95;;;;;;;12.41;98.00;100494.91;5036266;28;20056;-50
2022/06/01 02:52:51;;;;;;;5.35;3.88;;;;;;;12.42;97.65;100501.88;5048150;28;20053;-55
2022/06/01 02:55:21;;;;;;;6.07;4.03;;;;;;;12.45;98.35;100503.47;4996158;28;20053;-47
2022/06/01 02:57:49;;;;;;;4.82;3.83;;;;;;;12.45;97.65;100492.91;5046825;28;20076;-48
2022/06/01 03:00:30;;;;;;;5.50;3.58;;;;;;;12.48;97.31;100498.00;5044440;28;20053;-47
2022/06/01 03:02:58;;;;;;;4.82;3.72;;;;;;;12.49;97.11;100493.56;5045089;28;20041;-54
2022/06/01 03:05:29;;;;;;;4.18;3.78;;;;;;;12.51;97.22;100502.19;5050322;28;20057;-52
2022/06/01 03:07:57;;;;;;;5.70;3.13;;;;;;;12.50;97.34;100493.44;5043255;28;20068;-50
2022/06/01 03:10:24;;;;;;;5.20;3.78;;;;;;;12.52;97.33;100496.84;5047181;28;20139;-52
2022/06/01 03:12:52;;;;;;;5.35;3.60;;;;;;;12.52;97.69;100491.56;5033722;28;20072;-50
2022/06/01 03:15:21;;;;;;;5.68;3.67;;;;;;;12.54;97.83;100491.44;5036934;28;20071;-49
2022/06/01 03:17:49;;;;;;;3.95;3.55;;;;;;;12.54;98.43;100494.91;5055475;28;20052;-52
2022/06/01 03:20:19;;;;;;;5.63;3.55;;;;;;;12.54;98.96;100499.34;5041540;28;20060;-56
2022/06/01 03:22:46;;;;;;;3.90;3.08;;;;;;;12.54;99.11;100504.63;5050064;28;20042;-52
2022/06/01 03:25:17;;;;;;;4.82;3.47;;;;;;;12.52;98.96;100504.75;5036402;28;20040;-55
2022/06/01 03:27:44;;;;;;;4.05;3.13;;;;;;;12.54;98.46;100499.34;5053515;28;20052;-51
2022/06/01 03:30:15;;;;;;;4.70;3.60;;;;;;;12.54;98.16;100502.00;5051469;28;20574;-49
2022/06/01 03:32:46;;;;;;;5.80;4.10;;;;;;;12.55;98.11;100495.75;5053526;28;20054;-51
2022/06/01 03:35:16;;;;;;;3.83;3.42;;;;;;;12.56;99.05;100493.03;5050828;28;20908;-46
2022/06/01 03:37:43;;;;;;;6.20;3.13;;;;;;;12.56;98.32;100489.53;5045810;28;20056;-50
2022/06/01 03:40:11;;;;;;;4.38;3.65;;;;;;;12.56;98.56;100490.41;5044015;28;20053;-46
2022/06/01 03:42:38;;;;;;;5.05;3.20;;;;;;;12.57;99.18;100499.16;5047942;28;20056;-55
2022/06/01 03:47:53;;;;;;;3.60;2.80;;;;;;;12.56;94.91;100503.59;5049964;28;20528;-51
2022/06/01 03:50:20;;;;;;;3.78;2.90;;;;;;;12.63;95.00;100507.47;5038794;28;20516;-49
2022/06/01 03:52:47;;;;;;;4.10;2.88;;;;;;;12.65;93.81;100513.53;5052028;28;20049;-48
2022/06/01 03:55:14;;;;;;;3.97;2.75;;;;;;;12.67;92.57;100508.13;5046387;28;20378;-51
2022/06/01 03:57:42;;;;;;;3.45;2.55;;;;;;;12.73;92.83;100512.13;5050729;28;20067;-51
2022/06/01 04:00:14;;;;;;;2.55;2.30;;;;;;;12.75;92.51;100508.44;5029285;28;20520;-51
2022/06/01 04:02:42;;;;;;;2.55;2.30;;;;;;;12.78;91.86;100510.84;5027170;28;20529;-48
2022/06/01 04:05:12;;;;;;;3.58;2.38;;;;;;;12.77;91.26;100508.31;5030241;28;20057;-51
2022/06/01 04:07:39;;;;;;;5.53;2.63;;;;;;;12.76;91.13;100515.41;5046929;28;20076;-49
2022/06/01 04:10:08;;;;;;;4.47;2.85;;;;;;;12.74;90.81;100516.44;5044071;28;20575;-52
2022/06/01 04:12:36;;;;;;;7.30;2.90;;;;;;;12.72;91.17;100519.22;5041378;28;20063;-49
2022/06/01 04:15:05;;;;;;;2.67;2.15;;;;;;;12.66;89.17;100525.78;5042884;28;20074;-47
2022/06/01 04:17:32;;;;;;;3.35;2.55;;;;;;;12.67;89.42;100529.25;5050005;28;20057;-46
2022/06/01 04:19:59;;;;;;;3.47;2.90;;;;;;;12.66;90.74;100517.84;5041987;28;20053;-51
2022/06/01 04:22:26;;;;;;;3.47;2.88;;;;;;;12.62;91.39;100523.44;5041593;28;20048;-52
2022/06/01 04:24:54;;;;;;;4.30;3.28;;;;;;;12.60;91.64;100525.34;5027726;28;20067;-47
2022/06/01 04:27:21;;;;;;;5.90;3.53;;;;;;;12.60;92.09;100520.88;5043578;28;20524;-49
2022/06/01 04:29:48;;;;;;;7.63;3.85;;;;;;;12.57;93.29;100523.75;5039321;28;20075;-52
2022/06/01 04:32:21;;;;;;;5.65;4.03;;;;;;;12.53;95.62;100526.72;5025302;28;20409;-50
2022/06/01 04:34:49;;;;;;;4.75;4.22;;;;;;;12.54;96.12;100529.25;5024138;28;20056;-51
2022/06/01 04:37:16;;;;;;;7.80;4.25;;;;;;;12.52;96.62;100520.59;5086679;22;20044;-57
2022/06/01 04:39:43;;;;;;;4.90;4.00;;;;;;;12.52;96.96;100525.00;5079329;28;20146;-54
2022/06/01 04:42:10;;;;;;;7.50;4.30;;;;;;;12.52;97.05;100525.88;5081061;28;20151;-57
2022/06/01 04:44:38;;;;;;;4.78;4.28;;;;;;;12.54;96.84;100528.41;5082084;28;20067;-53
2022/06/01 04:47:05;;;;;;;5.35;4.43;;;;;;;12.55;97.04;100528.28;5073360;28;20043;-57
2022/06/01 04:49:32;;;;;;;8.43;4.50;;;;;;;12.59;97.12;100521.84;5075969;28;20078;-55
2022/06/01 04:52:00;;;;;;;7.25;4.57;;;;;;;12.63;97.07;100531.25;5063552;28;21706;-57
2022/06/01 04:54:27;;;;;;;5.97;4.78;;;;;;;12.72;96.99;100528.94;5075209;28;20063;-57
2022/06/01 04:56:54;;;;;;;7.45;4.80;;;;;;;12.78;96.72;100539.91;5081286;28;20056;-53
2022/06/01 04:59:22;;;;;;;6.55;5.53;;;;;;;12.83;96.82;100535.19;5080192;28;20086;-56
2022/06/01 05:01:49;;;;;;;6.75;5.40;;;;;;;12.86;95.81;100539.38;5078004;28;20056;-56
2022/06/01 05:04:16;;;;;;;5.45;4.38;;;;;;;12.85;95.17;100537.69;5067888;28;20064;-58
2022/06/01 05:06:43;;;;;;;8.57;4.82;;;;;;;12.92;95.29;100541.59;5083907;28;20415;-59
2022/06/01 05:09:11;;;;;;;9.25;5.30;;;;;;;12.98;95.30;100545.63;5069449;28;20049;-52
2022/06/01 05:11:38;;;;;;;6.53;4.63;;;;;;;13.05;93.14;100546.84;5078250;28;20063;-55
2022/06/01 05:14:05;;;;;;;5.63;5.03;;;;;;;13.02;92.27;100547.94;5087550;28;20052;-56
2022/06/01 05:16:32;;;;;;;5.28;4.75;;;;;;;13.16;92.28;100552.25;5085560;28;20073;-57
2022/06/01 05:19:00;;;;;;;6.53;4.25;;;;;;;13.13;87.38;100548.00;5085526;28;20670;-57
2022/06/01 05:21:27;;;;;;;6.35;4.35;;;;;;;13.19;87.67;100549.38;5084378;28;20627;-58
2022/06/01 05:23:54;;;;;;;6.25;4.03;;;;;;;13.32;86.83;100542.28;5085828;28;20093;-57
2022/06/01 05:26:21;;;;;;;6.00;4.13;;;;;;;13.42;85.96;100548.63;5077065;28;21935;-57
2022/06/01 05:28:48;;;;;;;6.75;3.78;;;;;;;13.43;84.93;100547.66;5076218;28;20058;-58
2022/06/01 05:31:18;;;;;;;5.63;4.45;;;;;;;13.54;84.57;100552.16;5033758;28;20040;-57
2022/06/01 05:33:46;;;;;;;5.10;4.00;;;;;;;13.56;82.87;100546.78;5062826;28;20275;-57
2022/06/01 05:36:14;;;;;;;4.30;3.50;;;;;;;13.48;82.85;100544.69;5082864;28;20074;-58
2022/06/01 05:38:42;;;;;;;5.75;3.60;;;;;;;13.41;82.18;100541.63;5070898;28;20119;-58
2022/06/01 05:41:09;;;;;;;4.68;3.67;;;;;;;13.59;82.32;100544.72;5065794;28;20064;-55
2022/06/01 05:43:36;;;;;;;4.53;4.10;;;;;;;13.82;82.11;100547.50;5094016;28;20044;-57
2022/06/01 05:46:04;;;;;;;6.47;3.85;;;;;;;14.01;80.78;100558.44;5097996;28;20056;-56
2022/06/01 05:48:31;;;;;;;7.82;4.55;;;;;;;14.03;78.71;100545.91;5076503;28;20473;-57
2022/06/01 05:50:59;;;;;;;5.18;3.75;;;;;;;14.09;78.62;100544.59;5091985;28;20530;-54
2022/06/01 05:53:26;;;;;;;5.88;3.97;;;;;;;14.06;79.07;100550.16;5089900;28;20052;-56
2022/06/01 05:55:53;;;;;;;4.75;3.50;;;;;;;13.78;75.95;100548.69;5070350;28;21970;-55
2022/06/01 05:58:24;;;;;;;6.55;3.85;;;;;;;13.86;77.24;100546.31;5090493;28;20380;-52
2022/06/01 06:00:52;;;;;;;6.25;3.42;;;;;;;14.00;76.19;100540.84;5083794;28;20056;-55
2022/06/01 06:03:23;;;;;;;5.63;3.60;;;;;;;14.05;75.36;100538.72;5088068;28;20059;-53
2022/06/01 06:06:14;;;;;;;5.93;3.80;;;;;;;14.10;75.15;100538.38;5085675;28;20434;-55
2022/06/01 06:08:56;;;;;;;5.45;3.30;;;;;;;14.33;75.77;100532.19;5090208;28;20059;-55
2022/06/01 06:11:26;;;;;;;5.57;3.63;;;;;;;14.57;74.78;100534.78;5088272;28;20051;-53
2022/06/01 06:13:55;;;;;;;6.05;3.28;;;;;;;14.78;73.34;100534.09;5086857;28;20066;-56
2022/06/01 06:16:22;;;;;;;8.80;3.55;;;;;;;15.01;73.21;100542.88;5096673;28;20050;-56
2022/06/01 06:18:51;;;;;;;5.82;3.53;;;;;;;15.02;71.83;100541.91;5087442;28;20512;-57
2022/06/01 06:21:18;;;;;;;4.85;3.88;;;;;;;15.11;72.03;100543.84;5082373;28;20059;-58
2022/06/01 06:23:45;;;;;;;4.10;2.90;;;;;;;15.06;70.09;100540.72;5086899;28;20094;-57
2022/06/01 06:26:13;;;;;;;4.05;2.70;;;;;;;15.12;69.07;100548.19;5083762;28;20341;-56
2022/06/01 06:28:40;;;;;;;5.28;2.97;;;;;;;15.12;68.61;100542.88;5085611;28;20032;-54
2022/06/01 06:31:07;;;;;;;7.07;2.88;;;;;;;15.18;69.05;100532.63;5083967;28;20731;-57
2022/06/01 06:33:34;;;;;;;6.50;3.50;;;;;;;15.34;69.59;100542.00;5084535;28;20040;-54
2022/06/01 06:36:04;;;;;;;4.00;3.38;;;;;;;15.44;69.47;100542.94;5086590;28;20528;-56
2022/06/01 06:38:33;;;;;;;4.68;3.65;;;;;;;15.55;69.31;100545.59;5086452;28;20058;-58
2022/06/01 06:41:01;;;;;;;3.45;2.65;;;;;;;15.50;67.58;100536.31;5084285;28;20531;-55
2022/06/01 06:43:29;;;;;;;5.07;2.47;;;;;;;15.45;67.66;100536.69;5089484;28;20051;-58
2022/06/01 06:46:23;;;;;;;5.60;2.42;;;;;;;15.50;68.31;100534.50;5085802;28;20052;-55
2022/06/01 06:48:51;;;;;;;4.22;2.70;;;;;;;15.59;67.46;100538.22;5078921;28;20056;-56
2022/06/01 06:51:19;;;;;;;5.03;2.38;;;;;;;15.39;66.76;100542.47;5081934;28;20136;-55
2022/06/01 06:53:46;;;;;;;6.35;2.78;;;;;;;15.45;67.85;100542.84;5087615;28;20044;-59
2022/06/01 06:56:16;;;;;;;6.47;3.60;;;;;;;15.41;67.80;100543.22;5077723;28;20044;-58
2022/06/01 06:58:43;;;;;;;3.45;2.40;;;;;;;15.40;68.18;100546.81;5079148;28;20147;-55
2022/06/01 07:01:10;;;;;;;4.93;3.13;;;;;;;15.47;68.28;100541.88;5085926;28;20054;-58
2022/06/01 07:03:38;;;;;;;5.43;2.63;;;;;;;15.64;66.91;100536.06;5083152;28;21350;-56
2022/06/01 07:06:17;;;;;;;6.72;3.30;;;;;;;15.81;66.09;100534.72;5082943;28;20044;-55
2022/06/01 07:08:49;;;;;;;5.25;2.70;;;;;;;16.04;65.20;100530.97;5075685;28;20494;-56
2022/06/01 07:11:18;;;;;;;3.10;2.30;;;;;;;16.28;64.67;100538.69;5068986;28;20052;-54
2022/06/01 07:13:47;;;;;;;5.00;2.75;;;;;;;16.10;64.08;100519.84;5095997;28;20063;-54
2022/06/01 07:16:24;;;;;;;5.00;3.15;;;;;;;16.14;64.52;100531.06;5066347;28;20048;-54
2022/06/01 07:18:53;;;;;;;4.05;2.80;;;;;;;16.35;64.53;100539.03;5090675;28;20419;-53
2022/06/01 07:21:21;;;;;;;3.47;2.53;;;;;;;16.51;63.15;100533.25;5089896;28;20048;-55
2022/06/01 07:23:49;;;;;;;5.40;2.25;;;;;;;16.68;62.23;100540.63;5084764;28;20106;-60
2022/06/01 07:26:20;;;;;;;4.50;2.63;;;;;;;16.94;62.36;100533.09;5089924;28;20055;-55
2022/06/01 07:28:47;;;;;;;4.68;2.55;;;;;;;17.33;61.45;100547.34;5089506;28;20082;-55
2022/06/01 07:31:14;;;;;;;6.50;2.60;;;;;;;17.39;59.30;100551.31;5092720;28;20059;-56
2022/06/01 07:33:41;;;;;;;2.47;1.88;;;;;;;17.36;60.21;100549.75;5091132;28;20416;-56
2022/06/01 07:36:11;;;;;;;5.18;2.70;;;;;;;17.09;59.92;100545.03;5090486;28;20047;-56
2022/06/01 07:43:05;;;;;;;4.20;2.47;;;;;;;16.98;61.13;100553.13;5084631;28;20056;-54
2022/06/01 07:44:43;;;;;;;3.75;2.38;;;;;;;16.90;61.53;100553.78;5081950;28;20070;-54
2022/06/01 07:47:11;;;;;;;2.42;2.10;;;;;;;16.97;62.01;100548.75;5085481;28;20058;-55
2022/06/01 07:49:58;;;;;;;3.92;2.17;;;;;;;17.14;61.12;100557.94;5081807;28;20048;-57
2022/06/01 07:52:47;;;;;;;3.78;2.22;;;;;;;17.03;62.08;100550.91;5083784;28;20621;-56
2022/06/01 07:55:15;;;;;;;3.35;1.67;;;;;;;17.38;61.70;100561.13;5080325;28;20055;-57
2022/06/01 07:57:42;;;;;;;3.95;2.20;;;;;;;17.66;59.67;100554.19;5087891;28;20066;-56
2022/06/01 08:00:10;;;;;;;3.30;1.88;;;;;;;17.39;60.21;100551.31;5047671;28;20520;-54
2022/06/01 08:02:38;;;;;;;4.00;1.60;;;;;;;17.67;59.81;100544.38;5084692;28;20048;-56
2022/06/01 08:05:10;;;;;;;2.95;1.80;;;;;;;17.89;59.88;100548.63;5088236;28;20048;-53
2022/06/01 08:07:37;;;;;;;3.03;1.70;;;;;;;17.91;57.65;100558.13;5055177;28;20080;-53
2022/06/01 08:10:06;;;;;;;5.63;1.88;;;;;;;17.92;57.70;100559.84;5058020;28;20129;-53
2022/06/01 08:15:21;;;;;;;4.13;2.10;;;;;;;17.35;59.64;100556.06;5086468;28;20044;-56
2022/06/01 08:17:57;;;;;;;3.88;2.25;;;;;;;17.37;59.25;100555.91;5090049;28;20097;-58
2022/06/01 08:20:32;;;;;;;3.35;1.80;;;;;;;17.46;59.02;100547.13;5065705;28;20723;-58
2022/06/01 08:23:04;;;;;;;2.40;1.65;;;;;;;17.64;58.77;100556.13;5066051;28;20052;-56
2022/06/01 08:25:32;;;;;;;6.15;2.05;;;;;;;17.72;58.62;100553.59;5069882;28;20044;-56
2022/06/01 08:28:06;;;;;;;2.85;1.77;;;;;;;17.68;59.20;100551.38;5088936;28;20138;-55
2022/06/01 08:30:35;;;;;;;5.00;2.03;;;;;;;17.72;59.21;100550.13;5073679;28;20059;-53
2022/06/01 08:33:03;;;;;;;3.75;1.80;;;;;;;17.98;59.11;100558.44;5086816;28;20501;-55
2022/06/01 08:35:34;;;;;;;3.50;1.50;;;;;;;18.21;58.12;100551.84;5063387;28;20047;-52
2022/06/01 08:38:01;;;;;;;4.25;2.17;;;;;;;18.23;57.13;100551.69;5054640;28;20652;-56
2022/06/01 08:41:03;;;;;;;5.28;2.60;;;;;;;18.17;56.68;100560.25;5068792;28;20056;-56
2022/06/01 08:43:37;;;;;;;6.93;2.08;;;;;;;18.22;55.38;100566.84;5070492;28;20148;-54
2022/06/01 08:46:05;;;;;;;5.35;2.35;;;;;;;18.19;55.77;100561.81;5059176;28;20060;-56
2022/06/01 08:48:44;;;;;;;4.07;2.15;;;;;;;18.40;55.05;100563.47;5085542;28;20067;-56
2022/06/01 08:51:11;;;;;;;5.38;2.20;;;;;;;17.79;54.29;100564.59;5064166;28;20056;-56
2022/06/01 08:53:39;;;;;;;3.25;1.50;;;;;;;18.11;55.15;100571.50;5072817;28;20055;-57
2022/06/01 08:56:19;;;;;;;5.63;2.20;;;;;;;18.09;54.48;100576.94;5076418;28;20052;-55
2022/06/01 08:58:49;;;;;;;4.05;2.72;;;;;;;18.10;53.89;100572.44;5059769;28;20420;-54
2022/06/01 09:01:41;;;;;;;9.98;2.25;;;;;;;18.16;54.02;100575.41;5056302;28;20052;-56
2022/06/01 09:04:28;;;;;;;8.13;1.80;;;;;;;18.33;53.04;100573.88;5077193;28;20048;-55
2022/06/01 09:07:11;;;;;;;3.13;1.73;;;;;;;18.51;52.26;100581.97;5079751;28;20048;-55
2022/06/01 09:09:43;;;;;;;4.88;2.05;;;;;;;18.13;51.49;100581.00;5078787;28;20594;-57
2022/06/01 09:12:11;;;;;;;5.15;2.05;;;;;;;17.94;52.77;100581.84;5078915;28;20056;-56
2022/06/01 09:14:39;;;;;;;2.88;1.75;;;;;;;17.89;51.83;100584.09;5051718;28;20137;-56
2022/06/01 09:17:06;;;;;;;3.95;1.92;;;;;;;17.53;52.10;100585.53;5070949;28;20056;-55
2022/06/01 09:22:38;;;;;;;5.28;1.90;;;;;;;17.78;49.75;100583.34;5084447;28;20048;-55
2022/06/01 09:25:10;;;;;;;2.00;1.40;;;;;;;17.80;49.30;100590.25;5083778;28;20056;-55
2022/06/01 09:27:51;;;;;;;3.42;2.30;;;;;;;17.50;49.92;100580.47;5083989;28;20059;-55
2022/06/01 09:30:39;;;;;;;5.63;1.83;;;;;;;17.72;50.38;100585.56;5083641;28;20043;-55
2022/06/01 09:33:14;;;;;;;3.70;1.77;;;;;;;17.95;48.66;100580.03;5078375;28;20052;-56
2022/06/01 09:35:46;;;;;;;;;;;;;;;17.95;48.64;100585.34;5080119;28;20036;-56
2022/06/01 09:38:39;;;;;;;5.15;1.75;;;;;;;18.05;48.86;100567.53;5082112;28;20344;-57
2022/06/01 09:41:09;;;;;;;3.55;2.00;;;;;;;18.02;48.44;100578.50;5072751;28;20048;-55
2022/06/01 09:43:39;;;;;;;4.68;1.75;;;;;;;18.26;47.86;100572.72;5077431;28;20056;-57
2022/06/01 09:46:07;;;;;;;4.05;1.50;;;;;;;18.22;48.50;100576.66;5070912;28;20726;-56
2022/06/01 09:48:44;;;;;;;3.97;1.98;;;;;;;18.40;48.50;100568.78;5057958;28;20060;-57
2022/06/01 09:51:17;;;;;;;9.93;2.55;;;;;;;18.59;48.18;100560.75;5053620;28;20062;-57
2022/06/01 09:53:51;;;;;;;6.72;2.00;;;;;;;18.54;48.12;100552.34;5077130;28;20056;-56
2022/06/01 09:56:29;;;;;;;6.00;2.77;;;;;;;18.67;47.65;100547.53;5079849;28;20506;-56
2022/06/01 10:07:25;;;;;;;2.97;1.70;;;;;;;19.03;44.89;100531.72;5084190;28;20139;-56
2022/06/01 10:09:55;;;;;;;6.13;2.10;;;;;;;19.23;44.54;100528.00;5081870;28;20059;-56
2022/06/01 10:12:41;;;;;;;2.80;2.10;;;;;;;19.40;43.77;100522.81;5073831;28;20048;-56
2022/06/01 10:15:26;;;;;;;;;;;;;;;19.27;43.78;100523.19;5074863;28;20048;-57
2022/06/01 10:18:00;;;;;;;10.18;1.80;;;;;;;19.39;44.20;100521.16;5079823;28;19920;-57
2022/06/01 10:20:33;;;;;;;4.50;1.65;;;;;;;19.34;43.59;100528.78;5059159;28;20059;-57
2022/06/01 10:23:07;;;;;;;3.90;1.50;;;;;;;19.05;44.16;100535.09;5060020;28;20133;-55
2022/06/01 10:25:45;;;;;;;3.13;1.50;;;;;;;18.97;44.59;100524.31;5078630;28;20110;-56
2022/06/01 10:28:21;;;;;;;3.70;1.83;;;;;;;18.85;46.29;100533.50;5064351;28;20430;-57
2022/06/01 10:31:22;;;;;;;3.28;1.70;;;;;;;19.14;46.22;100504.03;5072823;28;20048;-57
2022/06/01 10:33:54;;;;;;;6.30;2.05;;;;;;;19.16;45.62;100520.72;5076142;28;20062;-56
2022/06/01 10:36:37;;;;;;;3.22;2.03;;;;;;;18.84;45.31;100521.16;5061659;28;20503;-57
2022/06/01 10:39:09;;;;;;;2.35;1.67;;;;;;;19.11;44.31;100512.31;5073349;22;20044;-80
2022/06/01 10:41:51;;;;;;;6.57;2.20;;;;;;;19.65;43.12;100513.28;4986903;28;20080;-80
2022/06/01 10:44:24;;;;;;;5.60;1.25;;;;;;;19.84;42.90;100502.44;4979577;28;20207;-80
2022/06/01 10:47:06;;;;;;;5.97;1.90;;;;;;;20.06;40.94;100503.81;4996406;28;20049;-80
2022/06/01 10:49:56;;;;;;;2.67;1.65;;;;;;;20.16;40.60;100499.22;5012012;28;20922;-79
2022/06/01 10:52:30;;;;;;;3.40;1.55;;;;;;;20.30;41.11;100492.44;5007831;28;20138;-83
2022/06/01 10:55:12;;;;;;;7.43;2.10;;;;;;;20.38;40.52;100495.19;5024557;28;20124;-82
2022/06/01 10:57:42;;;;;;;3.35;1.85;;;;;;;20.70;40.54;100488.38;5032826;28;20046;-82
2022/06/01 11:00:14;;;;;;;3.38;1.90;;;;;;;20.35;40.40;100492.81;4986194;28;20065;-83
2022/06/01 11:03:20;;;;;;;3.10;1.65;;;;;;;20.16;41.11;100496.53;4999962;28;20110;-83
2022/06/01 11:06:02;;;;;;;4.78;1.90;;;;;;;20.39;41.67;100488.84;5013950;28;20068;-84
2022/06/01 11:08:58;;;;;;;5.28;2.13;;;;;;;20.63;41.19;100498.91;5011255;28;20042;-83
2022/06/01 11:11:39;;;;;;;2.93;2.10;;;;;;;19.51;42.27;100485.25;5007810;28;20124;-88
2022/06/01 11:14:12;;;;;;;3.47;2.10;;;;;;;19.87;42.42;100475.44;4994524;28;20046;-81
2022/06/01 11:16:56;;;;;;;3.45;1.90;;;;;;;20.34;41.92;100483.13;4978375;28;20034;-82
2022/06/01 11:19:24;;;;;;;2.43;1.80;;;;;;;20.65;41.20;100470.13;4992647;28;20104;-84
2022/06/01 11:22:10;;;;;;;5.75;1.90;;;;;;;21.01;40.46;100471.81;5014186;28;20109;-83
2022/06/01 11:24:44;;;;;;;3.97;2.03;;;;;;;21.01;38.83;100480.66;5025177;28;20056;-81
2022/06/01 11:27:42;;;;;;;4.88;2.03;;;;;;;21.04;38.70;100482.19;5025615;28;20080;-82
2022/06/01 11:30:26;;;;;;;4.93;1.90;;;;;;;20.35;39.26;100462.56;5022236;28;20591;-85
2022/06/01 11:33:02;;;;;;;2.33;1.45;;;;;;;20.45;39.67;100472.19;4986472;28;20056;-83
2022/06/01 11:35:32;;;;;;;;;;;;;;;20.76;38.75;100468.19;5003152;28;20046;-83
2022/06/01 11:38:20;;;;;;;4.72;1.90;;;;;;;20.59;37.83;100486.84;5007547;28;19925;-84
2022/06/01 11:41:04;;;;;;;7.57;1.63;;;;;;;20.72;38.31;100476.53;5003211;28;20064;-84
2022/06/01 11:43:36;;;;;;;4.97;1.63;;;;;;;21.47;37.39;100475.81;5012394;28;20053;-85
2022/06/01 11:46:34;;;;;;;4.60;1.65;;;;;;;21.69;37.14;100475.16;5006955;28;20048;-86
2022/06/01 11:49:10;;;;;;;7.90;1.77;;;;;;;21.21;37.57;100479.41;5003916;28;20194;-89
2022/06/01 11:51:37;;;;;;;2.72;1.80;;;;;;;20.68;38.25;100485.03;4996065;28;20049;-83
2022/06/01 11:54:08;;;;;;;8.27;2.55;;;;;;;20.17;38.72;100492.88;5006172;28;20115;-82
2022/06/01 11:56:52;;;;;;;4.28;1.75;;;;;;;19.93;39.85;100485.50;4994057;28;20053;-81
2022/06/01 11:59:25;;;;;;;5.32;1.75;;;;;;;20.04;39.69;100494.25;5010831;28;20044;-86
2022/06/01 12:02:40;;;;;;;4.22;2.05;;;;;;;20.29;39.51;100480.09;5014233;28;20148;-85
2022/06/01 12:05:14;;;;;;;5.05;2.03;;;;;;;20.53;38.45;100481.25;4989515;28;20144;-85
2022/06/01 12:07:48;;;;;;;3.85;1.67;;;;;;;20.82;38.26;100473.75;4985588;28;20048;-84
2022/06/01 12:10:27;;;;;;;5.00;1.70;;;;;;;21.00;38.89;100465.63;5010954;28;20141;-82
2022/06/01 12:13:06;;;;;;;1.83;1.55;;;;;;;21.30;38.17;100471.38;4989818;28;20046;-80